Swift Ace — C6XB8 — position and weather

sailwx.info

Track history (hours):
 
Tides and Currents Weather Stations Pressure Air Temp Water Temp Dewpoint Dewpoint Depression Visibility Wind Speed Wind Dir Waves Ship Positions

Swift Ace

Last reported at 2017-Jun-22 11:45 UTC. Time now 2017-Jun-27 14:07 UTC.
Position N 26°49' W 120°30'.

Length 200 m; draft 8.6 m.

Type: Cargo ship. MMSI: 310968322.

Date/timePositionNaut miles runAvg speedWind from/ knotsBaromVisibWave heightAir tempDewpointWater temp
2017-Jun-22 11:45N 26°49' W 120°30'313.5
2017-Jun-22 11:29N 26°50' W 120°34'813.5
2017-Jun-22 10:53N 26°54' W 120°42'513.6
2017-Jun-22 10:30N 26°57' W 120°47'713.7
2017-Jun-22 09:59N 27°01' W 120°53'713.7
2017-Jun-22 09:30N 27°04' W 120°60'713.5
2017-Jun-22 09:00N 27°08' W 121°06'713.4
2017-Jun-22 08:30N 27°11' W 121°13'713.3
2017-Jun-22 08:00N 27°14' W 121°19'713.4
2017-Jun-22 07:30N 27°17' W 121°26'713.2
2017-Jun-22 06:57N 27°21' W 121°33'613.3
2017-Jun-22 06:28N 27°24' W 121°39'613.2
2017-Jun-22 06:00N 27°27' W 121°45'713.3
2017-Jun-22 05:31N 27°30' W 121°52'713.2
2017-Jun-22 05:00N 27°34' W 121°58'713.0
2017-Jun-22 04:30N 27°37' W 122°05'713.1
2017-Jun-22 04:00N 27°41' W 122°11'812.9
2017-Jun-22 03:23N 27°45' W 122°19'512.9
2017-Jun-22 03:00N 27°47' W 122°24'612.9
2017-Jun-22 02:30N 27°50' W 122°30'612.8
2017-Jun-22 02:00N 27°53' W 122°36'612.8
2017-Jun-22 01:30N 27°56' W 122°42'712.8
2017-Jun-22 01:00N 27°60' W 122°49'1012.8
2017-Jun-22 00:15N 28°04' W 122°58'313.2
2017-Jun-22 00:00N 28°06' W 123°01'713.1
2017-Jun-21 23:30N 28°09' W 123°08'713.0
2017-Jun-21 22:58N 28°13' W 123°15'613.0
2017-Jun-21 22:30N 28°16' W 123°21'713.1
2017-Jun-21 22:00N 28°19' W 123°27'712.9
2017-Jun-21 21:29N 28°22' W 123°34'612.9
2017-Jun-21 21:00N 28°25' W 123°40'713.1
2017-Jun-21 20:30N 28°29' W 123°46'713.1
2017-Jun-21 20:00N 28°32' W 123°53'713.0
2017-Jun-21 19:28N 28°36' W 123°59'1213.0
2017-Jun-21 18:35N 28°41' W 124°11'212.7
2017-Jun-21 18:24N 28°43' W 124°13'612.9
2017-Jun-21 17:54N 28°46' W 124°19'512.7
2017-Jun-21 17:30N 28°48' W 124°24'712.9
2017-Jun-21 16:59N 28°52' W 124°31'612.9
2017-Jun-21 16:30N 28°55' W 124°37'713.0
2017-Jun-21 16:00N 28°58' W 124°44'815.2
2017-Jun-21 15:30N 29°02' W 124°51'1217.7
2017-Jun-21 14:49N 29°08' W 125°03'1316.4
2017-Jun-21 14:00N 29°15' W 125°16'916.4
2017-Jun-21 13:26N 29°19' W 125°26'716.7
2017-Jun-21 13:00N 29°23' W 125°33'916.8
2017-Jun-21 12:29N 29°27' W 125°42'916.6
2017-Jun-21 11:58N 29°32' W 125°50'  
Track history (hours):
 
Tides and Currents Weather Stations Pressure Air Temp Water Temp Dewpoint Dewpoint Depression Visibility Wind Speed Wind Dir Waves Ship Positions

Swift Ace

Last reported at 2017-Jun-22 11:45 UTC. Time now 2017-Jun-27 14:07 UTC.
Position N 26°49' W 120°30'.

Length 200 m; draft 8.6 m.

Type: Cargo ship. MMSI: 310968322.

Date/timePositionNaut miles runAvg speedWind from/ knotsBaromVisibWave heightAir tempDewpointWater temp
2017-Jun-22 11:45N 26°49' W 120°30'313.5
2017-Jun-22 11:29N 26°50' W 120°34'813.5
2017-Jun-22 10:53N 26°54' W 120°42'513.6
2017-Jun-22 10:30N 26°57' W 120°47'713.7
2017-Jun-22 09:59N 27°01' W 120°53'713.7
2017-Jun-22 09:30N 27°04' W 120°60'713.5
2017-Jun-22 09:00N 27°08' W 121°06'713.4
2017-Jun-22 08:30N 27°11' W 121°13'713.3
2017-Jun-22 08:00N 27°14' W 121°19'713.4
2017-Jun-22 07:30N 27°17' W 121°26'713.2
2017-Jun-22 06:57N 27°21' W 121°33'613.3
2017-Jun-22 06:28N 27°24' W 121°39'613.2
2017-Jun-22 06:00N 27°27' W 121°45'713.3
2017-Jun-22 05:31N 27°30' W 121°52'713.2
2017-Jun-22 05:00N 27°34' W 121°58'713.0
2017-Jun-22 04:30N 27°37' W 122°05'713.1
2017-Jun-22 04:00N 27°41' W 122°11'812.9
2017-Jun-22 03:23N 27°45' W 122°19'512.9
2017-Jun-22 03:00N 27°47' W 122°24'612.9
2017-Jun-22 02:30N 27°50' W 122°30'612.8
2017-Jun-22 02:00N 27°53' W 122°36'612.8
2017-Jun-22 01:30N 27°56' W 122°42'712.8
2017-Jun-22 01:00N 27°60' W 122°49'1012.8
2017-Jun-22 00:15N 28°04' W 122°58'313.2
2017-Jun-22 00:00N 28°06' W 123°01'713.1
2017-Jun-21 23:30N 28°09' W 123°08'713.0
2017-Jun-21 22:58N 28°13' W 123°15'613.0
2017-Jun-21 22:30N 28°16' W 123°21'713.1
2017-Jun-21 22:00N 28°19' W 123°27'712.9
2017-Jun-21 21:29N 28°22' W 123°34'612.9
2017-Jun-21 21:00N 28°25' W 123°40'713.1
2017-Jun-21 20:30N 28°29' W 123°46'713.1
2017-Jun-21 20:00N 28°32' W 123°53'713.0
2017-Jun-21 19:28N 28°36' W 123°59'1213.0
2017-Jun-21 18:35N 28°41' W 124°11'212.7
2017-Jun-21 18:24N 28°43' W 124°13'612.9
2017-Jun-21 17:54N 28°46' W 124°19'512.7
2017-Jun-21 17:30N 28°48' W 124°24'712.9
2017-Jun-21 16:59N 28°52' W 124°31'612.9
2017-Jun-21 16:30N 28°55' W 124°37'713.0
2017-Jun-21 16:00N 28°58' W 124°44'815.2
2017-Jun-21 15:30N 29°02' W 124°51'1217.7
2017-Jun-21 14:49N 29°08' W 125°03'1316.4
2017-Jun-21 14:00N 29°15' W 125°16'916.4
2017-Jun-21 13:26N 29°19' W 125°26'716.7
2017-Jun-21 13:00N 29°23' W 125°33'916.8
2017-Jun-21 12:29N 29°27' W 125°42'916.6
2017-Jun-21 11:58N 29°32' W 125°50'  

Dump ship's entire track history